sensor_id;sensor_type;location;lat;lon;timestamp;P1;durP1;ratioP1;P2;durP2;ratioP2
31746;SDS011;18319;48.974;8.462;2024-03-08T00:00:30;22.03;;;13.40;;
31746;SDS011;18319;48.974;8.462;2024-03-08T00:02:57;17.57;;;11.60;;
31746;SDS011;18319;48.974;8.462;2024-03-08T00:05:27;19.10;;;12.20;;
31746;SDS011;18319;48.974;8.462;2024-03-08T00:07:54;20.50;;;13.40;;
31746;SDS011;18319;48.974;8.462;2024-03-08T00:10:22;16.93;;;11.97;;
31746;SDS011;18319;48.974;8.462;2024-03-08T00:12:49;19.97;;;12.47;;
31746;SDS011;18319;48.974;8.462;2024-03-08T00:15:17;19.57;;;11.20;;
31746;SDS011;18319;48.974;8.462;2024-03-08T00:17:44;22.37;;;11.87;;
31746;SDS011;18319;48.974;8.462;2024-03-08T00:20:11;19.17;;;12.27;;
31746;SDS011;18319;48.974;8.462;2024-03-08T00:22:38;19.53;;;12.53;;
31746;SDS011;18319;48.974;8.462;2024-03-08T00:25:06;16.87;;;12.20;;
31746;SDS011;18319;48.974;8.462;2024-03-08T00:27:35;18.37;;;13.03;;
31746;SDS011;18319;48.974;8.462;2024-03-08T00:30:03;19.70;;;13.10;;
31746;SDS011;18319;48.974;8.462;2024-03-08T00:32:31;18.97;;;12.67;;
31746;SDS011;18319;48.974;8.462;2024-03-08T00:34:58;21.57;;;13.10;;
31746;SDS011;18319;48.974;8.462;2024-03-08T00:37:24;22.60;;;13.77;;
31746;SDS011;18319;48.974;8.462;2024-03-08T00:39:51;18.07;;;11.13;;
31746;SDS011;18319;48.974;8.462;2024-03-08T00:42:19;20.30;;;12.77;;
31746;SDS011;18319;48.974;8.462;2024-03-08T00:44:48;19.37;;;13.03;;
31746;SDS011;18319;48.974;8.462;2024-03-08T00:47:16;22.43;;;12.07;;
31746;SDS011;18319;48.974;8.462;2024-03-08T00:49:42;19.37;;;12.53;;
31746;SDS011;18319;48.974;8.462;2024-03-08T00:52:09;19.17;;;12.30;;
31746;SDS011;18319;48.974;8.462;2024-03-08T00:54:36;23.00;;;12.97;;
31746;SDS011;18319;48.974;8.462;2024-03-08T00:57:03;24.60;;;13.77;;
31746;SDS011;18319;48.974;8.462;2024-03-08T00:59:31;21.70;;;13.03;;
31746;SDS011;18319;48.974;8.462;2024-03-08T01:02:00;20.13;;;11.80;;
31746;SDS011;18319;48.974;8.462;2024-03-08T01:04:27;19.10;;;11.83;;
31746;SDS011;18319;48.974;8.462;2024-03-08T01:06:54;17.70;;;11.97;;
31746;SDS011;18319;48.974;8.462;2024-03-08T01:09:21;14.87;;;11.53;;
31746;SDS011;18319;48.974;8.462;2024-03-08T01:11:48;21.70;;;13.10;;
31746;SDS011;18319;48.974;8.462;2024-03-08T01:14:15;19.17;;;12.13;;
31746;SDS011;18319;48.974;8.462;2024-03-08T01:16:42;17.53;;;11.23;;
31746;SDS011;18319;48.974;8.462;2024-03-08T01:19:10;20.00;;;12.50;;
31746;SDS011;18319;48.974;8.462;2024-03-08T01:21:36;20.73;;;12.80;;
31746;SDS011;18319;48.974;8.462;2024-03-08T01:24:03;17.20;;;12.47;;
31746;SDS011;18319;48.974;8.462;2024-03-08T01:26:30;19.27;;;12.37;;
31746;SDS011;18319;48.974;8.462;2024-03-08T01:28:59;27.97;;;13.73;;
31746;SDS011;18319;48.974;8.462;2024-03-08T01:31:26;21.40;;;12.90;;
31746;SDS011;18319;48.974;8.462;2024-03-08T01:33:53;20.00;;;12.03;;
31746;SDS011;18319;48.974;8.462;2024-03-08T01:36:22;21.73;;;12.97;;
31746;SDS011;18319;48.974;8.462;2024-03-08T01:38:49;18.47;;;12.10;;
31746;SDS011;18319;48.974;8.462;2024-03-08T01:41:16;19.63;;;12.53;;
31746;SDS011;18319;48.974;8.462;2024-03-08T01:43:43;20.67;;;13.27;;
31746;SDS011;18319;48.974;8.462;2024-03-08T01:46:10;20.17;;;12.43;;
31746;SDS011;18319;48.974;8.462;2024-03-08T01:48:40;18.37;;;13.30;;
31746;SDS011;18319;48.974;8.462;2024-03-08T01:51:07;21.07;;;12.97;;
31746;SDS011;18319;48.974;8.462;2024-03-08T01:53:35;23.77;;;12.40;;
31746;SDS011;18319;48.974;8.462;2024-03-08T01:56:02;19.60;;;12.33;;
31746;SDS011;18319;48.974;8.462;2024-03-08T01:58:31;19.97;;;13.33;;
31746;SDS011;18319;48.974;8.462;2024-03-08T02:00:58;20.07;;;12.43;;
31746;SDS011;18319;48.974;8.462;2024-03-08T02:03:29;19.63;;;12.87;;
31746;SDS011;18319;48.974;8.462;2024-03-08T02:05:56;22.50;;;12.50;;
31746;SDS011;18319;48.974;8.462;2024-03-08T02:08:24;19.90;;;11.57;;
31746;SDS011;18319;48.974;8.462;2024-03-08T02:10:52;17.10;;;11.57;;
31746;SDS011;18319;48.974;8.462;2024-03-08T02:13:19;17.93;;;11.30;;
31746;SDS011;18319;48.974;8.462;2024-03-08T02:15:49;19.17;;;11.93;;
31746;SDS011;18319;48.974;8.462;2024-03-08T02:18:17;17.60;;;11.53;;
31746;SDS011;18319;48.974;8.462;2024-03-08T02:20:45;21.70;;;13.53;;
31746;SDS011;18319;48.974;8.462;2024-03-08T02:23:13;21.47;;;13.23;;
31746;SDS011;18319;48.974;8.462;2024-03-08T02:25:40;20.33;;;13.97;;
31746;SDS011;18319;48.974;8.462;2024-03-08T02:28:08;21.93;;;12.67;;
31746;SDS011;18319;48.974;8.462;2024-03-08T02:30:36;22.80;;;12.70;;
31746;SDS011;18319;48.974;8.462;2024-03-08T02:33:03;20.80;;;11.93;;
31746;SDS011;18319;48.974;8.462;2024-03-08T02:35:30;20.13;;;11.70;;
31746;SDS011;18319;48.974;8.462;2024-03-08T02:37:58;21.67;;;12.47;;
31746;SDS011;18319;48.974;8.462;2024-03-08T02:40:25;21.23;;;11.37;;
31746;SDS011;18319;48.974;8.462;2024-03-08T02:42:52;18.37;;;12.93;;
31746;SDS011;18319;48.974;8.462;2024-03-08T02:45:19;18.03;;;11.73;;
31746;SDS011;18319;48.974;8.462;2024-03-08T02:47:45;20.20;;;13.50;;
31746;SDS011;18319;48.974;8.462;2024-03-08T02:50:14;19.60;;;12.27;;
31746;SDS011;18319;48.974;8.462;2024-03-08T02:52:41;20.20;;;12.30;;
31746;SDS011;18319;48.974;8.462;2024-03-08T02:55:10;21.93;;;12.70;;
31746;SDS011;18319;48.974;8.462;2024-03-08T02:57:40;18.77;;;12.30;;
31746;SDS011;18319;48.974;8.462;2024-03-08T03:00:07;18.80;;;12.93;;
31746;SDS011;18319;48.974;8.462;2024-03-08T03:02:35;21.37;;;13.10;;
31746;SDS011;18319;48.974;8.462;2024-03-08T03:05:02;22.90;;;12.70;;
31746;SDS011;18319;48.974;8.462;2024-03-08T03:07:31;21.77;;;12.17;;
31746;SDS011;18319;48.974;8.462;2024-03-08T03:09:58;22.43;;;12.83;;
31746;SDS011;18319;48.974;8.462;2024-03-08T03:12:26;20.13;;;12.37;;
31746;SDS011;18319;48.974;8.462;2024-03-08T03:14:53;22.40;;;11.57;;
31746;SDS011;18319;48.974;8.462;2024-03-08T03:17:21;22.53;;;12.47;;
31746;SDS011;18319;48.974;8.462;2024-03-08T03:19:48;21.67;;;12.00;;
31746;SDS011;18319;48.974;8.462;2024-03-08T03:22:15;24.33;;;12.27;;
31746;SDS011;18319;48.974;8.462;2024-03-08T03:24:41;22.27;;;12.13;;
31746;SDS011;18319;48.974;8.462;2024-03-08T03:27:08;21.73;;;13.03;;
31746;SDS011;18319;48.974;8.462;2024-03-08T03:29:38;23.83;;;13.47;;
31746;SDS011;18319;48.974;8.462;2024-03-08T03:32:05;18.50;;;12.20;;
31746;SDS011;18319;48.974;8.462;2024-03-08T03:34:32;20.57;;;13.00;;
31746;SDS011;18319;48.974;8.462;2024-03-08T03:37:01;20.70;;;12.27;;
31746;SDS011;18319;48.974;8.462;2024-03-08T03:39:28;19.47;;;12.30;;
31746;SDS011;18319;48.974;8.462;2024-03-08T03:41:56;24.87;;;12.47;;
31746;SDS011;18319;48.974;8.462;2024-03-08T03:44:23;18.90;;;11.77;;
31746;SDS011;18319;48.974;8.462;2024-03-08T03:46:52;21.53;;;13.33;;
31746;SDS011;18319;48.974;8.462;2024-03-08T03:49:18;22.37;;;12.13;;
31746;SDS011;18319;48.974;8.462;2024-03-08T03:51:45;19.00;;;11.83;;
31746;SDS011;18319;48.974;8.462;2024-03-08T03:54:12;20.57;;;12.67;;
31746;SDS011;18319;48.974;8.462;2024-03-08T03:56:39;20.20;;;13.30;;
31746;SDS011;18319;48.974;8.462;2024-03-08T03:59:06;19.67;;;11.93;;
31746;SDS011;18319;48.974;8.462;2024-03-08T04:01:33;19.33;;;11.93;;
31746;SDS011;18319;48.974;8.462;2024-03-08T04:04:01;19.33;;;12.20;;
31746;SDS011;18319;48.974;8.462;2024-03-08T04:06:28;18.67;;;12.17;;
31746;SDS011;18319;48.974;8.462;2024-03-08T04:08:55;21.43;;;12.47;;
31746;SDS011;18319;48.974;8.462;2024-03-08T04:11:21;18.60;;;12.53;;
31746;SDS011;18319;48.974;8.462;2024-03-08T04:13:48;21.30;;;12.13;;
31746;SDS011;18319;48.974;8.462;2024-03-08T04:16:15;26.50;;;13.80;;
31746;SDS011;18319;48.974;8.462;2024-03-08T04:18:43;21.47;;;12.23;;
31746;SDS011;18319;48.974;8.462;2024-03-08T04:21:11;18.83;;;12.03;;
31746;SDS011;18319;48.974;8.462;2024-03-08T04:23:37;21.43;;;13.13;;
31746;SDS011;18319;48.974;8.462;2024-03-08T04:26:04;19.90;;;12.00;;
31746;SDS011;18319;48.974;8.462;2024-03-08T04:28:34;22.27;;;12.40;;
31746;SDS011;18319;48.974;8.462;2024-03-08T04:31:06;21.97;;;11.70;;
31746;SDS011;18319;48.974;8.462;2024-03-08T04:33:33;21.20;;;12.77;;
31746;SDS011;18319;48.974;8.462;2024-03-08T04:36:00;20.07;;;12.47;;
31746;SDS011;18319;48.974;8.462;2024-03-08T04:38:30;19.70;;;11.60;;
31746;SDS011;18319;48.974;8.462;2024-03-08T04:40:57;20.97;;;11.77;;
31746;SDS011;18319;48.974;8.462;2024-03-08T04:43:24;20.50;;;11.83;;
31746;SDS011;18319;48.974;8.462;2024-03-08T04:45:51;20.23;;;11.77;;
31746;SDS011;18319;48.974;8.462;2024-03-08T04:48:18;24.47;;;12.17;;
31746;SDS011;18319;48.974;8.462;2024-03-08T04:50:45;24.93;;;13.40;;
31746;SDS011;18319;48.974;8.462;2024-03-08T04:53:12;20.57;;;13.50;;
31746;SDS011;18319;48.974;8.462;2024-03-08T04:55:40;20.60;;;13.23;;
31746;SDS011;18319;48.974;8.462;2024-03-08T04:58:07;18.67;;;12.27;;
31746;SDS011;18319;48.974;8.462;2024-03-08T05:00:33;20.53;;;11.77;;
31746;SDS011;18319;48.974;8.462;2024-03-08T05:03:00;18.53;;;10.70;;
31746;SDS011;18319;48.974;8.462;2024-03-08T05:05:27;22.63;;;12.47;;
31746;SDS011;18319;48.974;8.462;2024-03-08T05:07:55;24.13;;;11.43;;
31746;SDS011;18319;48.974;8.462;2024-03-08T05:10:24;21.03;;;12.97;;
31746;SDS011;18319;48.974;8.462;2024-03-08T05:12:54;18.77;;;11.53;;
31746;SDS011;18319;48.974;8.462;2024-03-08T05:15:21;22.57;;;12.20;;
31746;SDS011;18319;48.974;8.462;2024-03-08T05:17:50;18.90;;;12.53;;
31746;SDS011;18319;48.974;8.462;2024-03-08T05:20:17;19.80;;;10.37;;
31746;SDS011;18319;48.974;8.462;2024-03-08T05:22:44;18.50;;;12.00;;
31746;SDS011;18319;48.974;8.462;2024-03-08T05:25:11;18.07;;;11.30;;
31746;SDS011;18319;48.974;8.462;2024-03-08T05:27:39;15.20;;;9.77;;
31746;SDS011;18319;48.974;8.462;2024-03-08T05:30:08;22.60;;;11.80;;
31746;SDS011;18319;48.974;8.462;2024-03-08T05:32:39;18.63;;;11.00;;
31746;SDS011;18319;48.974;8.462;2024-03-08T05:35:09;18.67;;;11.50;;
31746;SDS011;18319;48.974;8.462;2024-03-08T05:37:37;22.90;;;11.17;;
31746;SDS011;18319;48.974;8.462;2024-03-08T05:40:04;19.83;;;11.30;;
31746;SDS011;18319;48.974;8.462;2024-03-08T05:42:34;20.63;;;12.47;;
31746;SDS011;18319;48.974;8.462;2024-03-08T05:45:01;16.93;;;11.37;;
31746;SDS011;18319;48.974;8.462;2024-03-08T05:47:29;19.13;;;11.27;;
31746;SDS011;18319;48.974;8.462;2024-03-08T05:49:56;20.10;;;11.00;;
31746;SDS011;18319;48.974;8.462;2024-03-08T05:52:23;23.57;;;12.60;;
31746;SDS011;18319;48.974;8.462;2024-03-08T05:54:51;19.47;;;11.03;;
31746;SDS011;18319;48.974;8.462;2024-03-08T05:57:17;19.67;;;10.57;;
31746;SDS011;18319;48.974;8.462;2024-03-08T05:59:45;23.50;;;11.83;;
31746;SDS011;18319;48.974;8.462;2024-03-08T06:02:13;18.77;;;10.27;;
31746;SDS011;18319;48.974;8.462;2024-03-08T06:04:45;20.67;;;11.77;;
31746;SDS011;18319;48.974;8.462;2024-03-08T06:07:12;20.17;;;12.13;;
31746;SDS011;18319;48.974;8.462;2024-03-08T06:09:38;20.10;;;12.03;;
31746;SDS011;18319;48.974;8.462;2024-03-08T06:12:05;21.70;;;11.93;;
31746;SDS011;18319;48.974;8.462;2024-03-08T06:14:34;18.63;;;12.00;;
31746;SDS011;18319;48.974;8.462;2024-03-08T06:17:01;22.97;;;11.87;;
31746;SDS011;18319;48.974;8.462;2024-03-08T06:19:28;22.03;;;10.80;;
31746;SDS011;18319;48.974;8.462;2024-03-08T06:21:56;19.50;;;12.27;;
31746;SDS011;18319;48.974;8.462;2024-03-08T06:24:23;23.30;;;12.50;;
31746;SDS011;18319;48.974;8.462;2024-03-08T06:26:49;23.73;;;11.97;;
31746;SDS011;18319;48.974;8.462;2024-03-08T06:29:16;20.50;;;12.33;;
31746;SDS011;18319;48.974;8.462;2024-03-08T06:31:43;20.13;;;11.80;;
31746;SDS011;18319;48.974;8.462;2024-03-08T06:34:09;19.93;;;10.17;;
31746;SDS011;18319;48.974;8.462;2024-03-08T06:36:36;19.47;;;11.40;;
31746;SDS011;18319;48.974;8.462;2024-03-08T06:39:05;22.03;;;11.53;;
31746;SDS011;18319;48.974;8.462;2024-03-08T06:41:34;18.90;;;10.53;;
31746;SDS011;18319;48.974;8.462;2024-03-08T06:44:01;20.97;;;11.27;;
31746;SDS011;18319;48.974;8.462;2024-03-08T06:46:28;21.63;;;11.63;;
31746;SDS011;18319;48.974;8.462;2024-03-08T06:48:55;22.27;;;12.77;;
31746;SDS011;18319;48.974;8.462;2024-03-08T06:51:22;23.57;;;12.30;;
31746;SDS011;18319;48.974;8.462;2024-03-08T06:53:49;19.83;;;11.30;;
31746;SDS011;18319;48.974;8.462;2024-03-08T06:56:18;23.27;;;12.57;;
31746;SDS011;18319;48.974;8.462;2024-03-08T06:58:45;22.37;;;13.27;;
31746;SDS011;18319;48.974;8.462;2024-03-08T07:01:13;18.63;;;11.37;;
31746;SDS011;18319;48.974;8.462;2024-03-08T07:03:41;17.00;;;11.13;;
31746;SDS011;18319;48.974;8.462;2024-03-08T07:06:09;20.40;;;11.30;;
31746;SDS011;18319;48.974;8.462;2024-03-08T07:08:36;18.07;;;11.97;;
31746;SDS011;18319;48.974;8.462;2024-03-08T07:11:03;23.57;;;14.17;;
31746;SDS011;18319;48.974;8.462;2024-03-08T07:13:31;19.30;;;11.20;;
31746;SDS011;18319;48.974;8.462;2024-03-08T07:15:58;20.23;;;12.50;;
31746;SDS011;18319;48.974;8.462;2024-03-08T07:18:26;18.30;;;12.00;;
31746;SDS011;18319;48.974;8.462;2024-03-08T07:20:54;19.03;;;11.90;;
31746;SDS011;18319;48.974;8.462;2024-03-08T07:23:21;21.80;;;12.40;;
31746;SDS011;18319;48.974;8.462;2024-03-08T07:26:02;17.27;;;12.03;;
31746;SDS011;18319;48.974;8.462;2024-03-08T07:28:30;23.87;;;13.07;;
31746;SDS011;18319;48.974;8.462;2024-03-08T07:30:57;19.77;;;12.40;;
31746;SDS011;18319;48.974;8.462;2024-03-08T07:33:37;23.27;;;12.27;;
31746;SDS011;18319;48.974;8.462;2024-03-08T07:36:04;20.60;;;11.63;;
31746;SDS011;18319;48.974;8.462;2024-03-08T07:38:31;22.10;;;12.20;;
31746;SDS011;18319;48.974;8.462;2024-03-08T07:40:58;19.97;;;12.17;;
31746;SDS011;18319;48.974;8.462;2024-03-08T07:43:25;18.50;;;12.03;;
31746;SDS011;18319;48.974;8.462;2024-03-08T07:45:53;22.40;;;12.10;;
31746;SDS011;18319;48.974;8.462;2024-03-08T07:48:20;21.17;;;13.23;;
31746;SDS011;18319;48.974;8.462;2024-03-08T07:50:47;19.77;;;13.60;;
31746;SDS011;18319;48.974;8.462;2024-03-08T07:53:15;19.37;;;12.60;;
31746;SDS011;18319;48.974;8.462;2024-03-08T07:55:42;16.37;;;11.23;;
31746;SDS011;18319;48.974;8.462;2024-03-08T07:58:09;21.23;;;12.40;;
31746;SDS011;18319;48.974;8.462;2024-03-08T08:00:37;17.17;;;11.17;;
31746;SDS011;18319;48.974;8.462;2024-03-08T08:03:05;17.70;;;12.00;;
31746;SDS011;18319;48.974;8.462;2024-03-08T08:05:33;20.63;;;12.13;;
31746;SDS011;18319;48.974;8.462;2024-03-08T08:08:00;21.23;;;12.50;;
31746;SDS011;18319;48.974;8.462;2024-03-08T08:10:29;20.97;;;11.83;;
31746;SDS011;18319;48.974;8.462;2024-03-08T08:12:57;21.33;;;12.13;;
31746;SDS011;18319;48.974;8.462;2024-03-08T08:15:24;17.17;;;11.47;;
31746;SDS011;18319;48.974;8.462;2024-03-08T08:17:53;24.60;;;12.10;;
31746;SDS011;18319;48.974;8.462;2024-03-08T08:20:21;18.83;;;11.73;;
31746;SDS011;18319;48.974;8.462;2024-03-08T08:22:48;24.00;;;12.87;;
31746;SDS011;18319;48.974;8.462;2024-03-08T08:25:15;20.17;;;12.20;;
31746;SDS011;18319;48.974;8.462;2024-03-08T08:27:45;16.57;;;10.40;;
31746;SDS011;18319;48.974;8.462;2024-03-08T08:30:12;17.23;;;11.47;;
31746;SDS011;18319;48.974;8.462;2024-03-08T08:32:39;17.27;;;11.73;;
31746;SDS011;18319;48.974;8.462;2024-03-08T08:35:07;21.00;;;12.70;;
31746;SDS011;18319;48.974;8.462;2024-03-08T08:37:39;19.53;;;11.33;;
31746;SDS011;18319;48.974;8.462;2024-03-08T08:40:06;20.67;;;12.63;;
31746;SDS011;18319;48.974;8.462;2024-03-08T08:42:35;19.50;;;10.83;;
31746;SDS011;18319;48.974;8.462;2024-03-08T08:45:03;18.27;;;12.50;;
31746;SDS011;18319;48.974;8.462;2024-03-08T08:47:33;19.43;;;12.10;;
31746;SDS011;18319;48.974;8.462;2024-03-08T08:50:00;18.80;;;11.63;;
31746;SDS011;18319;48.974;8.462;2024-03-08T08:52:27;21.43;;;12.40;;
31746;SDS011;18319;48.974;8.462;2024-03-08T08:54:56;21.30;;;11.03;;
31746;SDS011;18319;48.974;8.462;2024-03-08T08:57:23;20.40;;;12.77;;
31746;SDS011;18319;48.974;8.462;2024-03-08T08:59:52;15.93;;;11.03;;
31746;SDS011;18319;48.974;8.462;2024-03-08T09:02:19;15.53;;;10.70;;
31746;SDS011;18319;48.974;8.462;2024-03-08T09:04:46;18.83;;;11.23;;
31746;SDS011;18319;48.974;8.462;2024-03-08T09:07:13;18.80;;;11.43;;
31746;SDS011;18319;48.974;8.462;2024-03-08T09:09:41;17.17;;;10.87;;
31746;SDS011;18319;48.974;8.462;2024-03-08T09:12:10;17.33;;;10.87;;
31746;SDS011;18319;48.974;8.462;2024-03-08T09:14:38;17.90;;;11.27;;
31746;SDS011;18319;48.974;8.462;2024-03-08T09:17:05;15.70;;;10.10;;
31746;SDS011;18319;48.974;8.462;2024-03-08T09:19:33;17.93;;;10.53;;
31746;SDS011;18319;48.974;8.462;2024-03-08T09:22:00;19.43;;;11.83;;
31746;SDS011;18319;48.974;8.462;2024-03-08T09:24:28;17.47;;;10.77;;
31746;SDS011;18319;48.974;8.462;2024-03-08T09:26:56;17.90;;;11.30;;
31746;SDS011;18319;48.974;8.462;2024-03-08T09:29:25;15.80;;;11.47;;
31746;SDS011;18319;48.974;8.462;2024-03-08T09:31:52;20.33;;;11.77;;
31746;SDS011;18319;48.974;8.462;2024-03-08T09:34:18;15.77;;;10.00;;
31746;SDS011;18319;48.974;8.462;2024-03-08T09:36:45;16.30;;;10.80;;
31746;SDS011;18319;48.974;8.462;2024-03-08T09:39:12;17.47;;;10.50;;
31746;SDS011;18319;48.974;8.462;2024-03-08T09:41:42;13.83;;;10.20;;
31746;SDS011;18319;48.974;8.462;2024-03-08T09:44:09;15.33;;;10.47;;
31746;SDS011;18319;48.974;8.462;2024-03-08T09:46:38;17.43;;;11.17;;
31746;SDS011;18319;48.974;8.462;2024-03-08T09:49:05;15.03;;;10.00;;
31746;SDS011;18319;48.974;8.462;2024-03-08T09:51:33;17.03;;;10.43;;
31746;SDS011;18319;48.974;8.462;2024-03-08T09:54:01;16.53;;;11.27;;
31746;SDS011;18319;48.974;8.462;2024-03-08T09:56:29;18.80;;;11.93;;
31746;SDS011;18319;48.974;8.462;2024-03-08T09:58:59;15.27;;;10.47;;
31746;SDS011;18319;48.974;8.462;2024-03-08T10:02:07;17.60;;;11.33;;
31746;SDS011;18319;48.974;8.462;2024-03-08T10:04:39;16.33;;;11.57;;
31746;SDS011;18319;48.974;8.462;2024-03-08T10:07:07;15.17;;;10.50;;
31746;SDS011;18319;48.974;8.462;2024-03-08T10:09:34;20.58;;;12.55;;
31746;SDS011;18319;48.974;8.462;2024-03-08T10:12:01;16.13;;;11.20;;
31746;SDS011;18319;48.974;8.462;2024-03-08T10:14:28;14.95;;;10.93;;
31746;SDS011;18319;48.974;8.462;2024-03-08T10:16:54;17.50;;;12.03;;
31746;SDS011;18319;48.974;8.462;2024-03-08T10:19:26;16.03;;;11.67;;
31746;SDS011;18319;48.974;8.462;2024-03-08T10:21:53;16.50;;;10.47;;
31746;SDS011;18319;48.974;8.462;2024-03-08T10:24:22;15.63;;;10.60;;
31746;SDS011;18319;48.974;8.462;2024-03-08T10:26:51;14.90;;;10.83;;
31746;SDS011;18319;48.974;8.462;2024-03-08T10:29:18;14.20;;;10.57;;
31746;SDS011;18319;48.974;8.462;2024-03-08T10:31:45;15.33;;;11.17;;
31746;SDS011;18319;48.974;8.462;2024-03-08T10:34:12;17.20;;;10.97;;
31746;SDS011;18319;48.974;8.462;2024-03-08T10:36:40;13.70;;;9.88;;
31746;SDS011;18319;48.974;8.462;2024-03-08T10:39:12;14.17;;;10.10;;
31746;SDS011;18319;48.974;8.462;2024-03-08T10:41:49;15.40;;;10.30;;
31746;SDS011;18319;48.974;8.462;2024-03-08T10:44:34;13.00;;;9.73;;
31746;SDS011;18319;48.974;8.462;2024-03-08T10:47:13;11.90;;;9.20;;
31746;SDS011;18319;48.974;8.462;2024-03-08T10:49:47;15.73;;;10.77;;
31746;SDS011;18319;48.974;8.462;2024-03-08T10:52:21;15.57;;;10.67;;
31746;SDS011;18319;48.974;8.462;2024-03-08T10:54:48;15.65;;;9.95;;
31746;SDS011;18319;48.974;8.462;2024-03-08T10:57:17;14.00;;;9.47;;
31746;SDS011;18319;48.974;8.462;2024-03-08T10:59:45;15.03;;;10.20;;
31746;SDS011;18319;48.974;8.462;2024-03-08T11:02:14;14.50;;;11.40;;
31746;SDS011;18319;48.974;8.462;2024-03-08T11:04:47;15.10;;;10.30;;
31746;SDS011;18319;48.974;8.462;2024-03-08T11:07:15;13.43;;;9.03;;
31746;SDS011;18319;48.974;8.462;2024-03-08T11:09:48;13.60;;;9.50;;
31746;SDS011;18319;48.974;8.462;2024-03-08T11:12:18;12.90;;;9.40;;
31746;SDS011;18319;48.974;8.462;2024-03-08T11:14:46;16.13;;;10.20;;
31746;SDS011;18319;48.974;8.462;2024-03-08T11:17:15;12.77;;;9.53;;
31746;SDS011;18319;48.974;8.462;2024-03-08T11:19:45;15.33;;;9.93;;
31746;SDS011;18319;48.974;8.462;2024-03-08T11:22:20;13.80;;;9.27;;
31746;SDS011;18319;48.974;8.462;2024-03-08T11:24:50;16.30;;;10.27;;
31746;SDS011;18319;48.974;8.462;2024-03-08T11:27:17;14.13;;;9.40;;
31746;SDS011;18319;48.974;8.462;2024-03-08T11:29:45;13.03;;;9.43;;
31746;SDS011;18319;48.974;8.462;2024-03-08T11:32:33;13.93;;;9.38;;
31746;SDS011;18319;48.974;8.462;2024-03-08T11:35:03;13.25;;;8.98;;
31746;SDS011;18319;48.974;8.462;2024-03-08T11:37:33;12.47;;;9.87;;
31746;SDS011;18319;48.974;8.462;2024-03-08T11:40:05;14.90;;;10.13;;
31746;SDS011;18319;48.974;8.462;2024-03-08T11:42:43;14.00;;;9.63;;
31746;SDS011;18319;48.974;8.462;2024-03-08T11:45:11;16.13;;;10.57;;
31746;SDS011;18319;48.974;8.462;2024-03-08T11:47:38;11.55;;;9.88;;
31746;SDS011;18319;48.974;8.462;2024-03-08T11:50:09;11.25;;;8.75;;
31746;SDS011;18319;48.974;8.462;2024-03-08T11:52:37;13.73;;;9.93;;
31746;SDS011;18319;48.974;8.462;2024-03-08T11:55:06;14.40;;;9.38;;
31746;SDS011;18319;48.974;8.462;2024-03-08T11:57:33;12.37;;;9.10;;
31746;SDS011;18319;48.974;8.462;2024-03-08T12:00:00;15.40;;;9.90;;
31746;SDS011;18319;48.974;8.462;2024-03-08T12:02:32;12.63;;;9.45;;
31746;SDS011;18319;48.974;8.462;2024-03-08T12:05:00;12.88;;;9.32;;
31746;SDS011;18319;48.974;8.462;2024-03-08T12:07:28;18.63;;;10.73;;
31746;SDS011;18319;48.974;8.462;2024-03-08T12:10:17;14.55;;;9.82;;
31746;SDS011;18319;48.974;8.462;2024-03-08T12:12:46;13.15;;;10.02;;
31746;SDS011;18319;48.974;8.462;2024-03-08T12:15:15;12.10;;;8.80;;
31746;SDS011;18319;48.974;8.462;2024-03-08T12:17:43;13.48;;;9.60;;
31746;SDS011;18319;48.974;8.462;2024-03-08T12:20:14;12.45;;;9.63;;
31746;SDS011;18319;48.974;8.462;2024-03-08T12:22:42;10.93;;;9.00;;
31746;SDS011;18319;48.974;8.462;2024-03-08T12:25:10;12.40;;;9.23;;
31746;SDS011;18319;48.974;8.462;2024-03-08T12:27:40;13.05;;;9.63;;
31746;SDS011;18319;48.974;8.462;2024-03-08T12:30:20;14.35;;;9.80;;
31746;SDS011;18319;48.974;8.462;2024-03-08T12:32:50;13.63;;;9.60;;
31746;SDS011;18319;48.974;8.462;2024-03-08T12:35:19;14.27;;;9.75;;
31746;SDS011;18319;48.974;8.462;2024-03-08T12:37:48;12.30;;;9.50;;
31746;SDS011;18319;48.974;8.462;2024-03-08T12:40:16;14.00;;;9.60;;
31746;SDS011;18319;48.974;8.462;2024-03-08T12:42:45;12.35;;;9.27;;
31746;SDS011;18319;48.974;8.462;2024-03-08T12:45:13;12.52;;;10.27;;
31746;SDS011;18319;48.974;8.462;2024-03-08T12:47:39;14.85;;;9.82;;
31746;SDS011;18319;48.974;8.462;2024-03-08T12:50:07;13.18;;;9.63;;
31746;SDS011;18319;48.974;8.462;2024-03-08T12:52:35;12.68;;;10.00;;
31746;SDS011;18319;48.974;8.462;2024-03-08T12:55:01;11.95;;;8.88;;
31746;SDS011;18319;48.974;8.462;2024-03-08T12:57:29;13.30;;;9.52;;
31746;SDS011;18319;48.974;8.462;2024-03-08T12:59:57;13.38;;;9.75;;
31746;SDS011;18319;48.974;8.462;2024-03-08T13:02:24;13.77;;;10.00;;
31746;SDS011;18319;48.974;8.462;2024-03-08T13:04:51;13.45;;;9.55;;
31746;SDS011;18319;48.974;8.462;2024-03-08T13:07:22;15.50;;;11.35;;
31746;SDS011;18319;48.974;8.462;2024-03-08T13:09:50;12.90;;;9.75;;
31746;SDS011;18319;48.974;8.462;2024-03-08T13:12:18;14.27;;;10.10;;
31746;SDS011;18319;48.974;8.462;2024-03-08T13:14:45;13.90;;;10.15;;
31746;SDS011;18319;48.974;8.462;2024-03-08T13:17:13;11.85;;;8.85;;
31746;SDS011;18319;48.974;8.462;2024-03-08T13:19:40;12.98;;;9.70;;
31746;SDS011;18319;48.974;8.462;2024-03-08T13:22:07;13.48;;;10.50;;
31746;SDS011;18319;48.974;8.462;2024-03-08T13:24:37;14.95;;;10.60;;
31746;SDS011;18319;48.974;8.462;2024-03-08T13:27:05;12.57;;;9.48;;
31746;SDS011;18319;48.974;8.462;2024-03-08T13:29:44;13.18;;;10.32;;
31746;SDS011;18319;48.974;8.462;2024-03-08T13:32:13;16.65;;;10.07;;
31746;SDS011;18319;48.974;8.462;2024-03-08T13:34:41;12.85;;;9.65;;
31746;SDS011;18319;48.974;8.462;2024-03-08T13:37:08;11.98;;;9.20;;
31746;SDS011;18319;48.974;8.462;2024-03-08T13:39:36;15.20;;;10.32;;
31746;SDS011;18319;48.974;8.462;2024-03-08T13:42:08;16.23;;;10.50;;
31746;SDS011;18319;48.974;8.462;2024-03-08T13:44:38;12.02;;;9.90;;
31746;SDS011;18319;48.974;8.462;2024-03-08T13:47:06;11.40;;;9.20;;
31746;SDS011;18319;48.974;8.462;2024-03-08T13:49:34;12.70;;;9.60;;
31746;SDS011;18319;48.974;8.462;2024-03-08T13:52:01;13.68;;;9.23;;
31746;SDS011;18319;48.974;8.462;2024-03-08T13:54:29;16.08;;;10.25;;
31746;SDS011;18319;48.974;8.462;2024-03-08T13:56:56;11.68;;;9.52;;
31746;SDS011;18319;48.974;8.462;2024-03-08T13:59:23;16.10;;;10.98;;
31746;SDS011;18319;48.974;8.462;2024-03-08T14:01:54;12.70;;;9.48;;
31746;SDS011;18319;48.974;8.462;2024-03-08T14:04:22;14.65;;;9.45;;
31746;SDS011;18319;48.974;8.462;2024-03-08T14:06:51;12.85;;;9.55;;
31746;SDS011;18319;48.974;8.462;2024-03-08T14:09:21;13.13;;;10.02;;
31746;SDS011;18319;48.974;8.462;2024-03-08T14:11:49;15.23;;;10.77;;
31746;SDS011;18319;48.974;8.462;2024-03-08T14:14:18;14.07;;;10.88;;
31746;SDS011;18319;48.974;8.462;2024-03-08T14:16:45;17.10;;;10.60;;
31746;SDS011;18319;48.974;8.462;2024-03-08T14:19:13;15.48;;;10.18;;
31746;SDS011;18319;48.974;8.462;2024-03-08T14:21:40;16.25;;;11.13;;
31746;SDS011;18319;48.974;8.462;2024-03-08T14:24:08;16.75;;;10.93;;
31746;SDS011;18319;48.974;8.462;2024-03-08T14:26:35;14.15;;;9.77;;
31746;SDS011;18319;48.974;8.462;2024-03-08T14:29:03;15.80;;;10.07;;